createdAt,value
2022-08-26T00:01:57.608Z,97034.44
2022-08-26T00:04:26.588Z,97032.09
2022-08-26T00:06:55.679Z,97039.13
2022-08-26T00:09:24.773Z,97033.63
2022-08-26T00:11:54.547Z,97038.53
2022-08-26T00:14:27.019Z,97030.94
2022-08-26T00:16:56.916Z,97036.03
2022-08-26T00:19:26.041Z,97029.25
2022-08-26T00:21:54.526Z,97037.13
2022-08-26T00:24:24.294Z,97027.19
2022-08-26T00:26:54.879Z,97030.84
2022-08-26T00:29:23.135Z,97020.41
2022-08-26T00:31:51.529Z,97021.94
2022-08-26T00:34:19.887Z,97026.19
2022-08-26T00:36:49.361Z,97014.19
2022-08-26T00:39:22.231Z,97016.19
2022-08-26T00:41:50.741Z,97018.56
2022-08-26T00:44:19.777Z,97026.84
2022-08-26T00:46:59.889Z,97013.47
2022-08-26T00:49:39.844Z,97013.88
2022-08-26T00:52:11.878Z,97012.91
2022-08-26T00:54:47.033Z,97022.59
2022-08-26T00:57:17.369Z,97014.00
2022-08-26T00:59:50.977Z,97014.25
2022-08-26T01:02:21.158Z,97017.13
2022-08-26T01:04:55.617Z,97018.50
2022-08-26T01:07:29.996Z,97018.75
2022-08-26T01:10:02.475Z,97012.19
2022-08-26T01:12:33.755Z,97020.94
2022-08-26T01:15:02.505Z,97020.00
2022-08-26T01:17:30.744Z,97029.09
2022-08-26T01:20:10.700Z,97033.56
2022-08-26T01:22:44.396Z,97036.66
2022-08-26T01:25:14.046Z,97031.16
2022-08-26T01:27:43.660Z,97027.56
2022-08-26T01:30:13.820Z,97033.25
2022-08-26T01:32:42.154Z,97037.00
2022-08-26T01:35:11.038Z,97031.47
2022-08-26T01:37:40.448Z,97032.03
2022-08-26T01:40:10.282Z,97039.66
2022-08-26T01:42:38.623Z,97032.56
2022-08-26T01:45:09.847Z,97023.06
2022-08-26T01:47:38.252Z,97020.75
2022-08-26T01:50:11.269Z,97022.91
2022-08-26T01:52:42.715Z,97023.66
2022-08-26T01:55:13.922Z,97024.72
2022-08-26T01:57:56.742Z,97012.50
2022-08-26T02:00:25.190Z,97010.13
2022-08-26T02:03:15.983Z,97016.94
2022-08-26T02:05:48.844Z,97009.38
2022-08-26T02:08:29.670Z,97017.94
2022-08-26T02:10:58.981Z,97014.84
2022-08-26T02:13:30.346Z,97023.78
2022-08-26T02:16:00.985Z,97018.56
2022-08-26T02:18:30.275Z,97020.72
2022-08-26T02:20:59.027Z,97019.94
2022-08-26T02:23:27.358Z,97015.44
2022-08-26T02:26:16.498Z,97018.38
2022-08-26T02:29:07.951Z,97013.72
2022-08-26T02:31:36.212Z,97018.16
2022-08-26T02:34:10.836Z,97027.44
2022-08-26T02:36:39.972Z,97020.63
2022-08-26T02:39:09.008Z,97017.94
2022-08-26T02:41:44.829Z,97012.81
2022-08-26T02:44:13.752Z,97026.41
2022-08-26T02:46:42.256Z,97018.13
2022-08-26T02:49:18.917Z,97015.78
2022-08-26T02:51:49.743Z,97022.84
2022-08-26T02:54:20.716Z,97017.63
2022-08-26T02:56:50.006Z,97022.28
2022-08-26T02:59:18.472Z,97024.38
2022-08-26T03:01:47.561Z,97021.53
2022-08-26T03:04:15.960Z,97017.09
2022-08-26T03:06:47.035Z,97026.50
2022-08-26T03:09:21.829Z,97032.81
2022-08-26T03:11:52.263Z,97025.53
2022-08-26T03:14:21.604Z,97030.19
2022-08-26T03:16:54.664Z,97035.41
2022-08-26T03:19:23.948Z,97038.25
2022-08-26T03:21:53.210Z,97034.38
2022-08-26T03:24:27.179Z,97035.94
2022-08-26T03:26:55.461Z,97035.41
2022-08-26T03:29:43.024Z,97046.34
2022-08-26T03:32:11.781Z,97042.44
2022-08-26T03:34:40.072Z,97040.09
2022-08-26T03:37:08.473Z,97039.59
2022-08-26T03:39:37.099Z,97044.78
2022-08-26T03:42:06.588Z,97046.88
2022-08-26T03:44:37.215Z,97049.19
2022-08-26T03:47:10.353Z,97050.50
2022-08-26T03:49:38.880Z,97047.66
2022-08-26T03:52:08.208Z,97057.81
2022-08-26T03:54:37.179Z,97048.44
2022-08-26T03:57:05.490Z,97052.34
2022-08-26T03:59:34.209Z,97054.66
2022-08-26T04:02:02.541Z,97048.44
2022-08-26T04:04:30.878Z,97052.88
2022-08-26T04:06:59.495Z,97047.41
2022-08-26T04:09:28.074Z,97044.78
2022-08-26T04:11:56.837Z,97042.41
2022-08-26T04:14:26.888Z,97045.28
2022-08-26T04:16:55.798Z,97041.63
2022-08-26T04:19:24.678Z,97037.72
2022-08-26T04:21:53.439Z,97041.41
2022-08-26T04:24:23.883Z,97042.16
2022-08-26T04:26:52.446Z,97042.94
2022-08-26T04:29:26.188Z,97045.22
2022-08-26T04:31:57.442Z,97049.41
2022-08-26T04:34:28.364Z,97053.31
2022-08-26T04:36:58.184Z,97048.41
2022-08-26T04:39:27.559Z,97048.41
2022-08-26T04:41:57.997Z,97045.28
2022-08-26T04:44:28.091Z,97048.41
2022-08-26T04:46:56.668Z,97047.53
2022-08-26T04:49:26.109Z,97058.75
2022-08-26T04:51:56.067Z,97054.00
2022-08-26T04:54:26.367Z,97060.75
2022-08-26T04:56:55.343Z,97064.41
2022-08-26T04:59:24.849Z,97057.63
2022-08-26T05:01:57.232Z,97063.88
2022-08-26T05:04:25.738Z,97060.50
2022-08-26T05:07:02.182Z,97064.38
2022-08-26T05:09:31.245Z,97063.84
2022-08-26T05:11:59.644Z,97061.72
2022-08-26T05:14:28.221Z,97068.75
2022-08-26T05:16:56.754Z,97061.63
2022-08-26T05:19:25.479Z,97067.44
2022-08-26T05:21:56.363Z,97065.31
2022-08-26T05:24:24.729Z,97059.25
2022-08-26T05:26:53.387Z,97059.97
2022-08-26T05:29:22.919Z,97056.91
2022-08-26T05:31:52.090Z,97064.69
2022-08-26T05:34:21.173Z,97058.88
2022-08-26T05:36:49.469Z,97053.16
2022-08-26T05:39:17.891Z,97057.38
2022-08-26T05:41:46.696Z,97070.78
2022-08-26T05:44:19.088Z,97056.22
2022-08-26T05:46:47.782Z,97057.63
2022-08-26T05:49:16.607Z,97055.31
2022-08-26T05:51:47.883Z,97052.19
2022-08-26T05:54:21.835Z,97047.75
2022-08-26T05:56:51.957Z,97056.34
2022-08-26T05:59:24.115Z,97055.78
2022-08-26T06:01:55.205Z,97058.94
2022-08-26T06:04:27.947Z,97069.44
2022-08-26T06:06:58.679Z,97057.75
2022-08-26T06:09:27.636Z,97063.19
2022-08-26T06:11:56.557Z,97060.00
2022-08-26T06:14:26.362Z,97055.19
2022-08-26T06:16:55.229Z,97066.16
2022-08-26T06:19:23.553Z,97063.97
2022-08-26T06:21:54.824Z,97064.16
2022-08-26T06:24:41.910Z,97062.75
2022-08-26T06:27:15.154Z,97067.00
2022-08-26T06:29:44.410Z,97069.09
2022-08-26T06:32:13.416Z,97064.22
2022-08-26T06:34:42.369Z,97073.00
2022-08-26T06:37:11.390Z,97069.31
2022-08-26T06:39:41.263Z,97074.50
2022-08-26T06:42:11.091Z,97070.34
2022-08-26T06:44:41.924Z,97075.47
2022-08-26T06:47:13.269Z,97078.56
2022-08-26T06:49:41.622Z,97085.00
2022-08-26T06:52:09.940Z,97083.09
2022-08-26T06:54:38.863Z,97084.03
2022-08-26T06:57:07.397Z,97084.53
2022-08-26T06:59:36.681Z,97075.78
2022-08-26T07:02:06.509Z,97077.66
2022-08-26T07:04:36.550Z,97080.28
2022-08-26T07:07:05.592Z,97070.59
2022-08-26T07:09:38.217Z,97080.06
2022-08-26T07:12:07.618Z,97073.63
2022-08-26T07:14:35.996Z,97068.88
2022-08-26T07:17:07.364Z,97082.03
2022-08-26T07:19:38.538Z,97075.28
2022-08-26T07:22:08.567Z,97073.34
2022-08-26T07:24:40.595Z,97076.16
2022-08-26T07:27:14.345Z,97071.50
2022-08-26T07:29:45.045Z,97073.09
2022-08-26T07:32:14.796Z,97063.94
2022-08-26T07:34:43.110Z,97070.66
2022-08-26T07:37:11.993Z,97075.72
2022-08-26T07:39:42.080Z,97070.09
2022-08-26T07:42:15.239Z,97076.06
2022-08-26T07:44:43.986Z,97077.59
2022-08-26T07:47:25.452Z,97073.31
2022-08-26T07:49:55.463Z,97065.22
2022-08-26T07:52:26.991Z,97068.59
2022-08-26T07:55:00.402Z,97067.25
2022-08-26T07:57:29.684Z,97063.06
2022-08-26T07:59:58.378Z,97064.91
2022-08-26T08:02:28.457Z,97064.91
2022-08-26T08:04:58.258Z,97056.03
2022-08-26T08:07:44.490Z,97057.03
2022-08-26T08:10:21.200Z,97039.91
2022-08-26T08:12:50.098Z,97044.38
2022-08-26T08:15:21.859Z,97040.69
2022-08-26T08:17:51.541Z,97047.28
2022-08-26T08:20:21.688Z,97049.00
2022-08-26T08:22:51.839Z,97047.88
2022-08-26T08:25:21.062Z,97043.28
2022-08-26T08:27:49.647Z,97039.72
2022-08-26T08:30:22.705Z,97040.66
2022-08-26T08:32:52.651Z,97036.91
2022-08-26T08:35:24.347Z,97041.28
2022-08-26T08:37:55.180Z,97050.81
2022-08-26T08:40:25.712Z,97043.97
2022-08-26T08:43:00.262Z,97049.03
2022-08-26T08:45:49.807Z,97038.34
2022-08-26T08:48:36.402Z,97037.31
2022-08-26T08:51:35.927Z,97031.69
2022-08-26T08:54:04.509Z,97030.13
2022-08-26T08:56:34.550Z,97016.03
2022-08-26T08:59:18.129Z,97029.28
2022-08-26T09:01:54.164Z,97026.59
2022-08-26T09:04:28.405Z,97013.81
2022-08-26T09:09:56.163Z,97012.34
2022-08-26T09:12:29.330Z,97010.50
2022-08-26T09:15:16.216Z,97005.41
2022-08-26T09:18:04.578Z,97013.00
2022-08-26T09:20:57.057Z,97013.31
2022-08-26T09:23:25.781Z,97012.25
2022-08-26T09:26:13.884Z,97003.47
2022-08-26T09:28:45.683Z,96999.59
2022-08-26T09:31:18.325Z,96997.03
2022-08-26T09:33:47.384Z,97000.44
2022-08-26T09:36:24.847Z,97001.34
2022-08-26T09:38:54.386Z,96993.28
2022-08-26T09:41:33.522Z,96986.50
2022-08-26T09:44:14.670Z,96987.72
2022-08-26T09:46:55.183Z,96973.78
2022-08-26T09:49:35.812Z,96968.22
2022-08-26T09:52:16.934Z,96965.38
2022-08-26T09:54:46.086Z,96962.75
2022-08-26T09:57:20.923Z,96973.00
2022-08-26T09:59:51.459Z,96968.78
2022-08-26T10:02:36.426Z,96977.47
2022-08-26T10:05:09.909Z,96972.81
2022-08-26T10:07:46.630Z,96981.50
2022-08-26T10:10:26.016Z,96974.97
2022-08-26T10:12:59.999Z,96980.22
2022-08-26T10:15:28.866Z,96979.31
2022-08-26T10:18:14.556Z,96976.34
2022-08-26T10:21:10.128Z,96980.84
2022-08-26T10:23:44.038Z,96972.91
2022-08-26T10:26:31.675Z,96970.50
2022-08-26T10:29:07.334Z,96967.53
2022-08-26T10:31:40.771Z,96961.13
2022-08-26T10:34:10.328Z,96967.66
2022-08-26T10:37:15.041Z,96968.66
2022-08-26T10:40:01.232Z,96965.41
2022-08-26T10:42:38.002Z,96961.16
2022-08-26T10:45:15.103Z,96960.69
2022-08-26T10:48:01.451Z,96949.50
2022-08-26T10:50:37.853Z,96957.50
2022-08-26T10:53:32.738Z,96956.13
2022-08-26T10:56:19.002Z,96958.41
2022-08-26T10:59:02.963Z,96955.31
2022-08-26T11:01:50.879Z,96954.38
2022-08-26T11:04:48.118Z,96947.75
2022-08-26T11:07:41.964Z,96937.00
2022-08-26T11:10:20.888Z,96939.00
2022-08-26T11:12:57.429Z,96942.00
2022-08-26T11:15:34.860Z,96938.38
2022-08-26T11:18:34.321Z,96921.44
2022-08-26T11:21:03.529Z,96926.94
2022-08-26T11:23:45.736Z,96923.66
2022-08-26T11:26:37.710Z,96914.47
2022-08-26T11:29:13.363Z,96919.56
2022-08-26T11:32:02.868Z,96915.38
2022-08-26T11:35:06.002Z,96911.44
2022-08-26T11:37:41.821Z,96903.47
2022-08-26T11:40:13.758Z,96907.72
2022-08-26T11:42:59.673Z,96904.28
2022-08-26T11:45:39.162Z,96900.41
2022-08-26T11:48:30.005Z,96905.69
2022-08-26T11:51:06.850Z,96892.41
2022-08-26T11:53:38.875Z,96900.16
2022-08-26T11:56:31.824Z,96890.72
2022-08-26T11:59:02.989Z,96886.72
2022-08-26T12:01:43.783Z,96882.22
2022-08-26T12:04:17.892Z,96881.59
2022-08-26T12:06:48.377Z,96878.41
2022-08-26T12:09:25.041Z,96876.00
2022-08-26T12:11:57.993Z,96876.13
2022-08-26T12:14:27.947Z,96867.91
2022-08-26T12:16:57.589Z,96877.69
2022-08-26T12:19:33.275Z,96868.66
2022-08-26T12:22:16.058Z,96871.88
2022-08-26T12:25:00.807Z,96856.97
2022-08-26T12:27:32.356Z,96862.63
2022-08-26T12:30:13.873Z,96852.69
2022-08-26T12:32:57.462Z,96859.84
2022-08-26T12:35:30.118Z,96860.06
2022-08-26T12:38:01.040Z,96848.50
2022-08-26T12:40:41.082Z,96851.91
2022-08-26T12:43:11.550Z,96857.75
2022-08-26T12:46:00.378Z,96855.88
2022-08-26T12:48:33.529Z,96845.28
2022-08-26T12:51:02.280Z,96848.00
2022-08-26T12:53:33.686Z,96854.69
2022-08-26T12:56:05.050Z,96850.44
2022-08-26T12:58:39.957Z,96850.44
2022-08-26T13:01:09.147Z,96850.72
2022-08-26T13:03:37.957Z,96855.88
2022-08-26T13:06:15.537Z,96851.22
2022-08-26T13:08:49.265Z,96857.31
2022-08-26T13:11:23.835Z,96853.78
2022-08-26T13:13:55.234Z,96838.56
2022-08-26T13:16:24.707Z,96847.50
2022-08-26T13:18:59.156Z,96837.81
2022-08-26T13:21:37.783Z,96835.72
2022-08-26T13:24:14.352Z,96841.28
2022-08-26T13:26:43.958Z,96845.59
2022-08-26T13:29:12.827Z,96838.47
2022-08-26T13:31:42.635Z,96833.06
2022-08-26T13:34:18.418Z,96843.88
2022-08-26T13:36:49.670Z,96837.91
2022-08-26T13:39:18.406Z,96828.91
2022-08-26T13:41:49.692Z,96833.72
2022-08-26T13:44:19.527Z,96837.25
2022-08-26T13:46:49.831Z,96838.91
2022-08-26T13:49:22.170Z,96832.41
2022-08-26T13:51:53.116Z,96822.28
2022-08-26T13:54:22.286Z,96829.28
2022-08-26T13:56:52.006Z,96826.44
2022-08-26T13:59:22.199Z,96832.47
2022-08-26T14:01:50.863Z,96820.03
2022-08-26T14:04:26.966Z,96828.06
2022-08-26T14:06:55.929Z,96829.53
2022-08-26T14:09:25.126Z,96832.47
2022-08-26T14:11:54.818Z,96839.19
2022-08-26T14:14:23.500Z,96829.75
2022-08-26T14:16:59.665Z,96824.75
2022-08-26T14:19:30.325Z,96828.69
2022-08-26T14:22:01.200Z,96834.16
2022-08-26T14:24:31.053Z,96830.84
2022-08-26T14:26:59.869Z,96833.69
2022-08-26T14:29:28.625Z,96833.22
2022-08-26T14:31:57.047Z,96826.22
2022-08-26T14:34:28.133Z,96829.63
2022-08-26T14:36:57.187Z,96820.75
2022-08-26T14:39:25.690Z,96825.31
2022-08-26T14:41:55.461Z,96827.38
2022-08-26T14:44:32.141Z,96830.69
2022-08-26T14:47:02.029Z,96821.16
2022-08-26T14:49:31.888Z,96815.53
2022-08-26T14:52:00.312Z,96822.69
2022-08-26T14:54:29.787Z,96812.88
2022-08-26T14:57:03.998Z,96821.34
2022-08-26T14:59:43.922Z,96816.50
2022-08-26T15:02:33.167Z,96813.66
2022-08-26T15:05:04.622Z,96816.41
2022-08-26T15:07:33.381Z,96812.84
2022-08-26T15:10:01.789Z,96808.94
2022-08-26T15:12:30.414Z,96822.88
2022-08-26T15:14:59.603Z,96816.16
2022-08-26T15:17:37.298Z,96821.81
2022-08-26T15:20:08.566Z,96822.47
2022-08-26T15:22:38.463Z,96821.16
2022-08-26T15:25:09.363Z,96827.41
2022-08-26T15:27:37.965Z,96824.47
2022-08-26T15:30:09.467Z,96821.34
2022-08-26T15:32:39.155Z,96819.38
2022-08-26T15:35:11.828Z,96814.75
2022-08-26T15:37:41.610Z,96825.31
2022-08-26T15:40:11.843Z,96811.00
2022-08-26T15:42:41.139Z,96812.44
2022-08-26T15:45:09.952Z,96815.41
2022-08-26T15:48:00.636Z,96812.31
2022-08-26T15:50:29.435Z,96812.09
2022-08-26T15:52:59.900Z,96806.59
2022-08-26T15:55:28.693Z,96808.28
2022-08-26T15:57:57.133Z,96802.91
2022-08-26T16:00:25.515Z,96802.41
2022-08-26T16:02:54.697Z,96803.31
2022-08-26T16:05:24.132Z,96799.88
2022-08-26T16:07:53.177Z,96802.88
2022-08-26T16:10:21.605Z,96800.00
2022-08-26T16:12:51.107Z,96802.25
2022-08-26T16:15:22.193Z,96811.38
2022-08-26T16:17:50.676Z,96810.00
2022-08-26T16:20:19.226Z,96806.47
2022-08-26T16:22:47.684Z,96818.31
2022-08-26T16:25:17.182Z,96811.22
2022-08-26T16:27:45.695Z,96810.19
2022-08-26T16:30:15.288Z,96813.38
2022-08-26T16:32:43.745Z,96810.69
2022-08-26T16:35:12.972Z,96806.22
2022-08-26T16:37:42.383Z,96811.56
2022-08-26T16:40:11.310Z,96811.72
2022-08-26T16:42:40.537Z,96812.50
2022-08-26T16:45:09.592Z,96816.41
2022-08-26T16:47:38.200Z,96826.91
2022-08-26T16:50:08.534Z,96822.88
2022-08-26T16:52:40.384Z,96823.69
2022-08-26T16:55:10.865Z,96835.81
2022-08-26T16:57:40.743Z,96828.72
2022-08-26T17:00:28.343Z,96829.69
2022-08-26T17:02:57.784Z,96829.53
2022-08-26T17:05:26.682Z,96824.72
2022-08-26T17:07:55.969Z,96831.25
2022-08-26T17:10:25.354Z,96835.28
2022-08-26T17:12:54.897Z,96837.97
2022-08-26T17:15:27.372Z,96827.41
2022-08-26T17:17:56.430Z,96832.69
2022-08-26T17:20:25.278Z,96832.88
2022-08-26T17:22:54.472Z,96830.22
2022-08-26T17:25:27.664Z,96836.41
2022-08-26T17:30:30.799Z,96831.94
2022-08-26T17:32:59.608Z,96833.19
2022-08-26T17:35:30.216Z,96849.06
2022-08-26T17:38:00.007Z,96852.38
2022-08-26T17:40:32.143Z,96855.41
2022-08-26T17:43:00.552Z,96847.31
2022-08-26T17:45:29.044Z,96847.31
2022-08-26T17:47:57.658Z,96853.78
2022-08-26T17:50:26.071Z,96855.69
2022-08-26T17:52:59.959Z,96853.13
2022-08-26T17:55:28.556Z,96869.84
2022-08-26T17:57:57.241Z,96870.38
2022-08-26T18:00:26.884Z,96868.94
2022-08-26T18:02:55.564Z,96869.88
2022-08-26T18:05:24.203Z,96866.88
2022-08-26T18:07:52.749Z,96875.53
2022-08-26T18:10:21.317Z,96879.03
2022-08-26T18:12:49.975Z,96871.16
2022-08-26T18:15:20.264Z,96874.28
2022-08-26T18:17:48.926Z,96888.72
2022-08-26T18:20:18.996Z,96892.44
2022-08-26T18:22:48.139Z,96878.88
2022-08-26T18:25:17.789Z,96888.72
2022-08-26T18:27:47.708Z,96885.16
2022-08-26T18:30:21.720Z,96883.31
2022-08-26T18:32:54.793Z,96877.00
2022-08-26T18:35:28.506Z,96888.38
2022-08-26T18:37:57.679Z,96886.81
2022-08-26T18:40:29.855Z,96885.53
2022-08-26T18:42:58.625Z,96882.00
2022-08-26T18:45:29.153Z,96889.44
2022-08-26T18:47:57.807Z,96893.25
2022-08-26T18:50:27.707Z,96901.28
2022-08-26T18:52:58.922Z,96899.94
2022-08-26T18:55:30.297Z,96903.63
2022-08-26T18:58:00.477Z,96904.81
2022-08-26T19:00:33.504Z,96917.03
2022-08-26T19:03:04.775Z,96910.88
2022-08-26T19:05:40.004Z,96926.47
2022-08-26T19:08:08.635Z,96928.81
2022-08-26T19:10:39.229Z,96919.66
2022-08-26T19:13:09.597Z,96920.47
2022-08-26T19:16:00.119Z,96926.63
2022-08-26T19:18:39.765Z,96929.63
2022-08-26T19:21:09.765Z,96927.09
2022-08-26T19:23:51.556Z,96923.22
2022-08-26T19:26:20.286Z,96920.69
2022-08-26T19:28:51.498Z,96921.19
2022-08-26T19:31:20.384Z,96926.91
2022-08-26T19:33:50.057Z,96929.44
2022-08-26T19:36:22.506Z,96934.50
2022-08-26T19:38:53.044Z,96925.94
2022-08-26T19:41:29.421Z,96937.41
2022-08-26T19:44:10.023Z,96933.69
2022-08-26T19:49:10.128Z,96939.72
2022-08-26T19:51:39.634Z,96941.78
2022-08-26T19:54:09.405Z,96940.72
2022-08-26T19:56:40.003Z,96933.47
2022-08-26T19:59:09.126Z,96944.47
2022-08-26T20:01:38.870Z,96932.72
2022-08-26T20:04:07.319Z,96940.31
2022-08-26T20:06:35.789Z,96925.31
2022-08-26T20:09:04.434Z,96935.53
2022-08-26T20:11:33.007Z,96933.59
2022-08-26T20:14:01.498Z,96939.41
2022-08-26T20:16:31.846Z,96947.91
2022-08-26T20:19:19.115Z,96950.59
2022-08-26T20:21:49.161Z,96944.03
2022-08-26T20:24:19.217Z,96950.44
2022-08-26T20:26:50.071Z,96953.47
2022-08-26T20:29:22.291Z,96943.31
2022-08-26T20:31:53.200Z,96946.59
2022-08-26T20:34:21.674Z,96947.38
2022-08-26T20:36:52.882Z,96953.44
2022-08-26T20:39:21.561Z,96946.25
2022-08-26T20:41:53.054Z,96954.53
2022-08-26T20:44:22.650Z,96944.84
2022-08-26T20:46:51.242Z,96955.69
2022-08-26T20:49:20.511Z,96960.53
2022-08-26T20:51:51.682Z,96958.47
2022-08-26T20:54:27.511Z,96961.16
2022-08-26T20:56:58.144Z,96956.06
2022-08-26T20:59:27.368Z,96956.63
2022-08-26T21:01:57.459Z,96960.38
2022-08-26T21:04:29.542Z,96954.50
2022-08-26T21:07:01.256Z,96965.31
2022-08-26T21:09:30.363Z,96963.19
2022-08-26T21:12:00.117Z,96961.09
2022-08-26T21:14:28.560Z,96959.44
2022-08-26T21:16:59.377Z,96954.78
2022-08-26T21:19:28.955Z,96955.91
2022-08-26T21:21:57.536Z,96967.34
2022-08-26T21:24:26.089Z,96964.88
2022-08-26T21:26:58.293Z,96962.69
2022-08-26T21:29:27.715Z,96966.25
2022-08-26T21:31:56.532Z,96956.84
2022-08-26T21:34:25.908Z,96968.56
2022-08-26T21:36:54.818Z,96962.97
2022-08-26T21:39:23.720Z,96957.88
2022-08-26T21:41:52.243Z,96970.53
2022-08-26T21:44:22.173Z,96962.97
2022-08-26T21:46:51.111Z,96973.88
2022-08-26T21:49:19.885Z,96974.56
2022-08-26T21:51:48.731Z,96981.81
2022-08-26T21:54:19.033Z,96983.25
2022-08-26T21:56:47.662Z,96987.06
2022-08-26T21:59:17.995Z,96974.88
2022-08-26T22:01:46.409Z,96972.75
2022-08-26T22:04:15.396Z,96976.84
2022-08-26T22:06:46.071Z,96975.88
2022-08-26T22:09:15.429Z,96979.88
2022-08-26T22:11:44.136Z,96971.84
2022-08-26T22:14:12.519Z,96979.84
2022-08-26T22:16:40.977Z,96977.22
2022-08-26T22:19:17.905Z,96979.28
2022-08-26T22:21:46.334Z,96979.81
2022-08-26T22:24:14.714Z,96970.06
2022-08-26T22:26:43.069Z,96976.63
2022-08-26T22:29:11.636Z,96982.00
2022-08-26T22:31:40.438Z,96977.06
2022-08-26T22:34:12.480Z,96977.94
2022-08-26T22:36:44.071Z,96975.94
2022-08-26T22:39:13.783Z,96977.19
2022-08-26T22:41:43.355Z,96971.09
2022-08-26T22:44:13.127Z,96977.63
2022-08-26T22:46:42.672Z,96982.47
2022-08-26T22:49:12.990Z,96978.88
2022-08-26T22:51:41.850Z,96979.19
2022-08-26T22:54:10.318Z,96978.69
2022-08-26T22:56:38.724Z,96982.81
2022-08-26T22:59:08.183Z,96987.16
2022-08-26T23:01:38.305Z,96983.25
2022-08-26T23:04:07.141Z,96980.50
2022-08-26T23:06:37.302Z,96985.38
2022-08-26T23:09:06.719Z,96991.00
2022-08-26T23:11:35.337Z,96971.59
2022-08-26T23:14:06.195Z,96975.22
2022-08-26T23:16:37.971Z,96983.69
2022-08-26T23:19:12.281Z,96971.88
2022-08-26T23:21:41.042Z,96981.72
2022-08-26T23:24:10.455Z,96971.59
2022-08-26T23:26:39.232Z,96970.34
2022-08-26T23:29:08.559Z,96978.50
2022-08-26T23:31:37.850Z,96973.28
2022-08-26T23:34:24.794Z,96984.31
2022-08-26T23:36:53.806Z,96973.47
2022-08-26T23:39:22.381Z,96976.78
2022-08-26T23:41:50.665Z,96976.34
2022-08-26T23:44:19.983Z,96977.63
2022-08-26T23:46:48.514Z,96981.28
2022-08-26T23:49:16.803Z,96984.47
2022-08-26T23:52:03.851Z,96977.41
2022-08-26T23:54:33.202Z,96981.63
2022-08-26T23:57:02.073Z,96973.41
2022-08-26T23:59:30.434Z,96968.34
